Latest Weather Observations for Warrnambool

IDV60801

Issued at 7:32 pm EDT Wednesday 7 December 2016 (issued every 30 minutes, with the page automatically refreshed every 10 minutes)

About weather observations | Map of weather stations | Latest weather observations for VIC | Other Formats
Station Details ID: 090186 Name: WARRNAMBOOL AIRPORT NDB Lat: -38.29 Lon: 142.45 Height: 70.8 m
Data from the previous 72 hours. | See also: Recent months at Warrnambool
Date/Time
EDT
Temp
°C
App
Temp
°C
Dew
Point
°C
Rel
Hum
%
Delta-T
°C
Wind Press
QNH
hPa
Press
MSL
hPa
Rain since
9am
mm
Dir  Spd
km/h
Gust
km/h
Spd
kts
Gust
kts
07/07:30pm 23.2 22.8 13.1 53 5.9 SE 7 11 4 6 1005.3 1005.2 0.0
07/07:00pm 23.9 22.6 11.3 45 7.1 SSE 9 11 5 6 1005.8 1005.7 0.0
07/06:30pm 24.3 22.6 11.3 44 7.3 S 11 13 6 7 1006.2 1006.1 0.0
07/06:00pm 24.4 22.6 10.7 42 7.7 S 11 19 6 10 1006.8 1006.7 0.0
07/05:30pm 25.9 22.5 9.3 35 9.1 WNW 17 28 9 15 1007.2 1007.1 0.0
07/05:00pm 26.2 20.2 5.2 26 10.8 NNW 26 39 14 21 1008.0 1007.9 0.0
07/04:30pm 26.3 21.4 6.9 29 10.2 NNW 22 33 12 18 1008.5 1008.4 0.0
07/04:00pm 25.7 21.2 6.3 29 10.1 N 19 30 10 16 1009.2 1009.1 0.0
07/03:30pm 25.5 21.2 7.1 31 9.7 NNW 19 33 10 18 1010.0 1009.9 0.0
07/03:00pm 25.0 20.7 7.2 32 9.4 NNW 19 28 10 15 1010.5 1010.4 0.0
07/02:30pm 24.5 20.7 7.6 34 8.9 N 17 24 9 13 1011.0 1010.9 0.0
07/02:00pm 24.1 20.2 8.5 37 8.4 N 19 30 10 16 1011.8 1011.7 0.0
07/01:30pm 22.8 18.8 6.6 35 8.3 NE 17 26 9 14 1012.4 1012.3 0.0
07/01:00pm 22.1 17.7 6.7 37 7.9 NNE 19 26 10 14 1013.2 1013.0 0.0
07/12:30pm 21.8 18.4 7.6 40 7.4 N 15 22 8 12 1013.6 1013.4 0.0
07/12:00pm 20.9 17.2 6.4 39 7.3 N 15 20 8 11 1014.0 1013.9 0.0
07/11:30am 20.0 16.5 5.6 39 7.1 NNE 13 20 7 11 1014.3 1014.2 0.0
07/11:00am 19.3 16.2 7.1 45 6.2 NE 13 20 7 11 1014.5 1014.4 0.0
07/10:30am 18.4 15.9 8.4 52 5.2 NNE 11 19 6 10 1014.7 1014.6 0.0
07/10:00am 17.1 14.1 7.7 54 4.8 NNE 13 19 7 10 1015.0 1014.9 0.0
07/09:30am 15.9 13.2 8.9 63 3.6 N 13 17 7 9 1015.2 1015.1 0.0
07/09:00am 15.3 13.3 10.1 71 2.7 N 11 15 6 8 1015.0 1014.9 0.0
07/08:30am 13.8 11.7 9.8 77 2.1 N 11 15 6 8 1015.1 1015.0 0.0
07/08:00am 12.0 9.6 9.9 87 1.1 N 13 15 7 8 1015.1 1015.0 0.0
07/07:30am 9.4 6.9 8.3 93 0.5 N 11 13 6 7 1015.1 1015.0 0.0
07/07:00am 7.4 4.5 6.3 93 0.5 N 11 15 6 8 1015.1 1015.0 0.0
07/06:30am 4.8 1.4 3.8 93 0.4 N 11 13 6 7 1015.0 1014.9 0.0
07/06:00am 4.8 1.7 3.8 93 0.4 N 9 11 5 6 1015.0 1014.9 0.0
07/05:30am 5.1 1.7 4.1 93 0.4 NNE 11 13 6 7 1014.8 1014.7 0.0
07/05:00am 6.2 3.0 5.2 93 0.4 N 11 13 6 7 1014.6 1014.5 0.0
07/04:30am 6.4 2.9 5.4 93 0.4 N 13 15 7 8 1014.5 1014.4 0.0
07/04:00am 6.0 2.4 5.0 93 0.4 N 13 13 7 7 1014.6 1014.5 0.0
07/03:30am 5.9 3.0 4.9 93 0.4 NNW 9 11 5 6 1014.5 1014.4 0.0
07/03:00am 5.9 2.3 4.9 93 0.4 N 13 15 7 8 1014.6 1014.5 0.0
07/02:30am 5.9 2.3 4.9 93 0.4 N 13 15 7 8 1014.8 1014.7 0.0
07/02:00am 6.4 2.9 5.4 93 0.4 N 13 13 7 7 1015.3 1015.2 0.0
07/01:30am 6.4 3.7 5.4 93 0.4 N 9 13 5 7 1015.6 1015.5 0.0
07/01:00am 6.2 3.0 5.2 93 0.4 N 11 13 6 7 1015.6 1015.5 0.0
07/12:30am 6.9 3.9 5.8 93 0.5 N 11 15 6 8 1015.9 1015.8 0.0
07/12:00am 7.0 4.0 5.9 93 0.5 N 11 11 6 6 1016.0 1015.9 0.0
 
Date/Time
EDT
Temp
°C
App
Temp
°C
Dew
Point
°C
Rel
Hum
%
Delta-T
°C
Wind Press
QNH
hPa
Press
MSL
hPa
Rain since
9am
mm
Dir  Spd
km/h
Gust
km/h
Spd
kts
Gust
kts
06/11:30pm 6.4 3.6 5.2 92 0.5 N 9 9 5 5 1016.0 1015.9 0.0
06/11:00pm 7.0 4.8 5.5 90 0.7 NNW 6 7 3 4 1016.1 1016.0 0.0
06/10:30pm 8.3 7.5 6.6 89 0.8 CALM 0 0 0 0 1016.3 1016.2 0.0
06/10:00pm 8.8 8.1 6.8 87 0.9 CALM 0 2 0 1 1016.3 1016.2 0.0
06/09:30pm 9.7 7.3 7.1 84 1.2 SW 9 11 5 6 1015.9 1015.8 0.0
06/09:00pm 10.4 7.4 7.6 83 1.3 SW 13 13 7 7 1016.0 1015.9 0.0
06/08:30pm 11.7 8.3 7.8 77 1.9 SSW 15 17 8 9 1015.9 1015.8 0.0
06/08:00pm 14.2 10.7 8.6 69 2.8 SSW 17 20 9 11 1015.8 1015.7 0.0
06/07:30pm 14.9 10.7 8.4 65 3.3 SW 20 24 11 13 1015.4 1015.3 0.0
06/07:00pm 15.6 11.5 8.6 63 3.6 SSW 20 28 11 15 1015.0 1014.9 0.0
06/06:30pm 16.0 10.8 7.2 56 4.4 SW 24 33 13 18 1015.3 1015.2 0.0
06/06:00pm 16.8 11.9 8.5 58 4.3 SW 24 32 13 17 1015.5 1015.4 0.0
06/05:30pm 16.6 11.0 7.0 53 4.8 SW 26 33 14 18 1015.3 1015.2 0.0
06/05:00pm 17.0 11.6 8.2 56 4.5 SW 26 33 14 18 1015.1 1015.0 0.0
06/04:30pm 17.7 12.7 8.0 53 5.0 SSW 24 33 13 18 1014.9 1014.8 0.0
06/04:00pm 17.7 12.5 8.8 56 4.6 SW 26 35 14 19 1014.8 1014.7 0.0
06/03:30pm 18.0 12.8 7.1 49 5.5 SSW 24 35 13 19 1014.9 1014.8 0.0
06/03:00pm 17.4 11.7 6.6 49 5.4 SW 26 33 14 18 1015.0 1014.9 0.0
06/02:30pm 17.8 11.5 7.2 50 5.3 SSW 30 39 16 21 1014.9 1014.8 0.0
06/02:00pm 17.2 10.4 7.0 51 5.1 SSW 32 43 17 23 1015.1 1015.0 0.0
06/01:30pm 17.6 10.4 5.9 46 5.7 SW 33 41 18 22 1015.4 1015.3 0.0
06/01:00pm 17.6 10.8 7.1 50 5.3 SW 32 44 17 24 1015.4 1015.3 0.0
06/12:30pm 17.0 10.1 6.5 50 5.2 SW 32 46 17 25 1015.3 1015.2 0.0
06/12:00pm 16.7 10.6 6.5 51 5.0 SW 28 41 15 22 1015.4 1015.3 0.0
06/11:30am 15.7 11.0 7.7 59 4.0 SW 22 33 12 18 1015.4 1015.3 0.0
06/11:00am 15.9 11.9 9.1 64 3.5 SW 20 28 11 15 1015.4 1015.3 0.0
06/10:30am 14.8 12.3 8.1 64 3.4 WSW 11 20 6 11 1015.4 1015.3 0.0
06/10:00am 14.8 11.7 7.4 61 3.7 W 13 24 7 13 1015.4 1015.3 0.0
06/09:30am 14.9 12.6 7.5 61 3.7 W 9 17 5 9 1015.2 1015.1 0.0
06/09:00am 14.2 12.0 7.9 66 3.1 N 9 11 5 6 1015.1 1015.0 0.2
06/08:30am 13.5 12.2 10.1 80 1.8 NNW 7 11 4 6 1014.7 1014.6 0.2
06/08:00am 12.1 10.3 9.3 83 1.4 N 9 11 5 6 1014.4 1014.3 0.2
06/07:30am 9.9 7.9 8.7 92 0.6 NNW 9 11 5 6 1014.6 1014.5 0.2
06/07:00am 9.1 6.6 8.0 93 0.5 NNW 11 11 6 6 1014.4 1014.3 0.2
06/06:30am 8.5 6.2 7.4 93 0.5 NW 9 11 5 6 1014.0 1013.9 0.2
06/06:00am 8.5 6.2 7.4 93 0.5 WNW 9 11 5 6 1013.9 1013.7 0.2
06/05:30am 7.7 5.6 6.6 93 0.5 NW 7 9 4 5 1013.6 1013.4 0.2
06/05:00am 8.9 6.7 7.8 93 0.5 WNW 9 11 5 6 1013.7 1013.5 0.2
06/04:30am 8.4 5.7 7.3 93 0.5 WNW 11 15 6 8 1013.4 1013.2 0.2
06/04:00am 8.1 5.7 7.0 93 0.5 NW 9 11 5 6 1013.1 1012.9 0.2
06/03:30am 7.7 4.8 6.6 93 0.5 NW 11 13 6 7 1013.2 1013.0 0.2
06/03:00am 6.0 3.5 5.0 93 0.4 N 7 9 4 5 1012.9 1012.7 0.2
06/02:30am 6.5 4.2 5.5 93 0.4 NNE 7 9 4 5 1012.5 1012.4 0.2
06/02:00am 6.5 3.8 5.5 93 0.4 NNE 9 9 5 5 1013.3 1013.1 0.2
06/01:30am 6.7 4.0 5.7 93 0.4 NNE 9 11 5 6 1013.5 1013.3 0.2
06/01:00am 6.6 4.3 5.6 93 0.4 N 7 9 4 5 1014.1 1014.0 0.2
06/12:30am 6.8 4.5 5.6 92 0.5 N 7 7 4 4 1014.6 1014.5 0.2
06/12:00am 8.0 7.2 6.6 91 0.6 CALM 0 0 0 0 1014.7 1014.6 0.2
 
Date/Time
EDT
Temp
°C
App
Temp
°C
Dew
Point
°C
Rel
Hum
%
Delta-T
°C
Wind Press
QNH
hPa
Press
MSL
hPa
Rain since
9am
mm
Dir  Spd
km/h
Gust
km/h
Spd
kts
Gust
kts
05/11:30pm 8.9 8.3 7.4 90 0.7 CALM 0 0 0 0 1014.6 1014.5 0.2
05/11:00pm 8.6 7.8 6.7 88 0.9 CALM 0 0 0 0 1014.8 1014.7 0.2
05/10:30pm 9.0 7.0 6.4 84 1.2 ESE 6 7 3 4 1014.4 1014.3 0.2
05/10:00pm 10.6 8.8 7.8 83 1.4 SSE 7 11 4 6 1014.5 1014.4 0.2
05/09:30pm 10.7 7.8 8.1 84 1.3 S 13 15 7 8 1014.6 1014.5 0.2
05/09:00pm 11.3 8.8 8.3 82 1.5 S 11 13 6 7 1015.2 1015.1 0.2
05/08:30pm 12.6 10.2 8.7 77 2.0 SSW 11 15 6 8 1014.9 1014.8 0.2
05/08:00pm 13.6 10.5 8.7 72 2.5 SSW 15 19 8 10 1014.5 1014.4 0.2
05/07:30pm 14.7 12.7 8.6 67 3.1 S 9 15 5 8 1014.1 1014.0 0.2
05/07:00pm 14.1 11.2 8.3 68 2.9 SSW 13 19 7 10 1014.0 1013.9 0.2
05/06:30pm 14.5 10.7 8.9 69 2.9 SSW 19 22 10 12 1014.0 1013.9 0.2
05/06:00pm 14.9 11.4 8.8 67 3.1 SSW 17 22 9 12 1014.6 1014.5 0.2
05/05:30pm 15.3 11.9 9.2 67 3.1 SSW 17 24 9 13 1014.3 1014.2 0.2
05/05:00pm 15.8 11.9 9.5 66 3.3 SSW 20 28 11 15 1013.6 1013.4 0.2
05/04:30pm 16.1 12.2 9.5 65 3.4 SSW 20 30 11 16 1013.7 1013.5 0.2
05/04:00pm 16.5 12.3 9.7 64 3.6 SW 22 30 12 16 1014.0 1013.9 0.2
05/03:30pm 16.1 11.8 9.3 64 3.5 SSW 22 32 12 17 1014.1 1014.0 0.2
05/03:00pm 17.1 12.8 10.9 67 3.3 SSW 24 32 13 17 1013.9 1013.7 0.2
05/02:30pm 16.5 12.2 10.6 68 3.1 SSW 24 35 13 19 1013.7 1013.5 0.2
05/02:00pm 17.1 13.0 11.6 70 3.0 SSW 24 30 13 16 1013.4 1013.2 0.2
05/01:30pm 16.6 12.3 10.7 68 3.2 SW 24 32 13 17 1013.7 1013.5 0.2
05/01:00pm 16.7 11.8 11.2 70 3.0 SSW 28 37 15 20 1013.8 1013.6 0.2
05/12:30pm 15.9 10.8 10.7 71 2.8 SW 28 39 15 21 1013.6 1013.4 0.2
05/12:00pm 17.1 11.9 9.0 59 4.2 SW 26 39 14 21 1013.4 1013.2 0.2
05/11:30am 16.1 10.8 10.0 67 3.2 SW 28 35 15 19 1013.5 1013.3 0.0
05/11:00am 16.1 11.2 10.0 67 3.2 WSW 26 35 14 19 1013.4 1013.2 0.0
05/10:30am 16.8 11.6 9.0 60 4.0 WSW 26 33 14 18 1013.1 1012.9 0.0
05/10:00am 16.1 10.8 8.6 61 3.8 WSW 26 35 14 19 1013.0 1012.8 0.0
05/09:30am 15.8 11.4 9.0 64 3.5 WSW 22 32 12 17 1012.6 1012.5 0.0
05/09:00am 15.0 10.7 9.4 69 2.9 WSW 22 32 12 17 1012.3 1012.2 0.0
05/08:30am 14.3 9.6 9.3 72 2.6 WSW 24 30 13 16 1011.9 1011.8 0.0
05/08:00am 14.2 9.8 9.0 71 2.7 W 22 30 12 16 1011.6 1011.5 0.0
05/07:30am 13.9 10.3 9.7 76 2.2 W 19 28 10 15 1011.0 1010.9 0.0
05/07:00am 12.6 11.2 10.8 89 0.9 NW 9 13 5 7 1010.4 1010.3 0.0
05/06:30am 11.1 8.9 9.2 88 1.0 NW 11 13 6 7 1009.8 1009.7 0.0
05/06:00am 12.3 10.5 9.3 82 1.5 WNW 9 13 5 7 1009.6 1009.5 0.0
05/05:30am 12.8 9.1 9.4 80 1.7 W 19 28 10 15 1009.0 1008.9 0.0
05/05:00am 13.2 10.1 10.2 82 1.6 W 17 26 9 14 1008.8 1008.7 0.0
05/04:30am 13.4 10.1 10.9 85 1.3 W 19 26 10 14 1008.3 1008.2 0.0
05/04:00am 13.7 11.2 11.2 85 1.3 W 15 24 8 13 1007.9 1007.8 0.0
05/03:30am 14.5 10.6 12.0 85 1.4 W 24 32 13 17 1007.2 1007.1 0.0
05/03:00am 15.1 10.6 12.6 85 1.4 WSW 28 39 15 21 1006.8 1006.7 0.0
05/02:38am 15.3 9.6 13.0 86 1.3 WSW 35 54 19 29 1006.6 1006.5 0.0
05/02:30am 15.3 9.2 13.0 86 1.3 W 37 52 20 28 1006.4 1006.3 0.0
05/02:27am 15.4 9.8 13.2 87 1.2 W 35 50 19 27 1006.4 1006.3 0.0
05/02:00am 15.7 10.1 14.4 92 0.7 W 37 52 20 28 1006.0 1005.9 0.0
05/01:58am 15.8 9.8 14.5 92 0.7 WSW 39 52 21 28 1006.0 1005.9 0.0
05/01:44am 16.2 10.8 14.9 92 0.8 W 37 50 20 27 1005.8 1005.7 0.0
05/01:36am 16.5 11.1 15.0 91 0.9 WSW 37 50 20 27 1005.6 1005.5 0.0
05/01:30am 16.9 11.2 15.2 90 1.0 W 39 52 21 28 1005.4 1005.3 0.0
05/01:01am 19.0 15.3 15.9 82 1.8 W 30 56 16 30 1004.6 1004.5 0.0
05/01:00am 19.3 16.3 15.8 80 2.1 W 26 52 14 28 1004.6 1004.5 0.0
05/12:57am 20.9 19.1 15.9 73 3.0 WNW 20 46 11 25 1004.5 1004.4 0.0
05/12:30am 21.6 17.4 15.7 69 3.5 NW 32 43 17 23 1003.6 1003.5 0.0
05/12:00am 21.8 17.3 15.4 67 3.8 NNW 33 46 18 25 1002.9 1002.8 0.0
 
Date/Time
EDT
Temp
°C
App
Temp
°C
Dew
Point
°C
Rel
Hum
%
Delta-T
°C
Wind Press
QNH
hPa
Press
MSL
hPa
Rain since
9am
mm
Dir  Spd
km/h
Gust
km/h
Spd
kts
Gust
kts
04/11:30pm 21.0 17.9 15.5 71 3.3 N 26 37 14 20 1002.6 1002.5 0.0
04/11:00pm 19.3 17.3 15.4 78 2.3 N 20 26 11 14 1002.4 1002.3 0.0
04/10:30pm 20.1 17.6 15.1 73 3.0 N 22 30 12 16 1002.5 1002.4 0.0
04/10:00pm 19.8 17.3 15.2 75 2.7 N 22 30 12 16 1002.6 1002.5 0.0
04/09:30pm 20.2 16.7 15.6 75 2.7 NNE 28 35 15 19 1002.3 1002.2 0.0
04/09:00pm 21.0 16.8 15.8 72 3.1 N 32 43 17 23 1002.3 1002.2 0.0
04/08:30pm 21.2 17.9 16.0 72 3.1 N 28 43 15 23 1002.6 1002.5 0.0
04/08:00pm 21.6 17.4 16.3 72 3.2 N 33 43 18 23 1002.5 1002.4 0.0

Other Formats:

Comma delimited format used in spreadsheet applications
http://www.bom.gov.au/fwo/IDV60801/IDV60801.94837.axf

JavaScript Object Notation format (JSON) in row-major order
http://www.bom.gov.au/fwo/IDV60801/IDV60801.94837.json